createdAt,value
2022-09-04T00:00:01.818Z,1.65
2022-09-04T00:02:34.369Z,3.92
2022-09-04T00:05:17.194Z,3.20
2022-09-04T00:08:02.273Z,2.13
2022-09-04T00:10:55.864Z,1.63
2022-09-04T00:16:51.108Z,1.48
2022-09-04T00:19:32.024Z,1.35
2022-09-04T00:22:00.130Z,1.27
2022-09-04T00:24:39.941Z,1.38
2022-09-04T00:27:32.931Z,1.10
2022-09-04T00:30:14.228Z,1.45
2022-09-04T00:32:59.269Z,1.42
2022-09-04T00:35:41.114Z,1.25
2022-09-04T00:38:19.434Z,1.40
2022-09-04T00:41:07.800Z,1.52
2022-09-04T00:43:57.025Z,1.33
2022-09-04T00:46:42.355Z,1.13
2022-09-04T00:49:33.699Z,1.50
2022-09-04T00:52:36.328Z,1.20
2022-09-04T00:55:44.475Z,1.70
2022-09-04T00:58:52.322Z,1.50
2022-09-04T01:01:24.907Z,1.13
2022-09-04T01:04:24.665Z,1.38
2022-09-04T01:07:24.112Z,1.00
2022-09-04T01:10:16.791Z,1.20
2022-09-04T01:13:09.069Z,1.40
2022-09-04T01:15:47.040Z,1.13
2022-09-04T01:18:18.764Z,1.05
2022-09-04T01:20:56.485Z,1.40
2022-09-04T01:23:43.834Z,1.42
2022-09-04T01:26:45.173Z,1.20
2022-09-04T01:29:11.711Z,1.80
2022-09-04T01:32:09.369Z,1.30
2022-09-04T01:34:59.747Z,1.20
2022-09-04T01:37:58.825Z,1.42
2022-09-04T01:40:46.774Z,1.50
2022-09-04T01:43:18.685Z,1.42
2022-09-04T01:46:05.220Z,1.45
2022-09-04T01:48:36.810Z,1.63
2022-09-04T01:51:12.971Z,1.52
2022-09-04T01:53:46.329Z,1.20
2022-09-04T01:56:21.484Z,1.40
2022-09-04T01:59:06.411Z,1.48
2022-09-04T02:01:47.797Z,1.30
2022-09-04T02:04:28.561Z,1.52
2022-09-04T02:07:19.554Z,1.33
2022-09-04T02:10:14.153Z,1.50
2022-09-04T02:12:51.211Z,1.45
2022-09-04T02:15:37.683Z,1.70
2022-09-04T02:18:26.301Z,1.40
2022-09-04T02:21:00.001Z,1.60
2022-09-04T02:23:53.813Z,1.25
2022-09-04T02:26:30.366Z,1.80
2022-09-04T02:29:00.777Z,1.80
2022-09-04T02:31:38.768Z,1.63
2022-09-04T02:34:12.510Z,1.73
2022-09-04T02:36:52.590Z,1.67
2022-09-04T02:39:34.828Z,2.00
2022-09-04T02:42:18.231Z,2.25
2022-09-04T02:47:31.774Z,1.40
2022-09-04T02:50:26.376Z,1.63
2022-09-04T02:53:18.422Z,1.92
2022-09-04T02:56:26.852Z,1.80
2022-09-04T02:59:17.153Z,2.03
2022-09-04T03:01:53.501Z,2.10
2022-09-04T03:04:23.214Z,2.05
2022-09-04T03:07:33.068Z,2.10
2022-09-04T03:10:19.373Z,1.95
2022-09-04T03:12:51.817Z,1.92
2022-09-04T03:15:40.081Z,1.75
2022-09-04T03:18:19.057Z,2.20
2022-09-04T03:20:58.109Z,1.70
2022-09-04T03:23:40.473Z,2.10
2022-09-04T03:26:34.192Z,1.90
2022-09-04T03:29:09.194Z,1.80
2022-09-04T03:32:16.347Z,2.20
2022-09-04T03:34:49.148Z,1.67
2022-09-04T03:37:41.063Z,1.50
2022-09-04T03:40:37.297Z,1.50
2022-09-04T03:43:39.411Z,1.75
2022-09-04T03:46:21.487Z,1.85
2022-09-04T03:49:14.533Z,1.73
2022-09-04T03:52:05.716Z,1.65
2022-09-04T03:55:19.545Z,1.73
2022-09-04T03:57:59.812Z,1.70
2022-09-04T04:00:31.654Z,1.70
2022-09-04T04:03:07.456Z,1.80
2022-09-04T04:05:44.074Z,1.58
2022-09-04T04:08:45.512Z,1.60
2022-09-04T04:11:21.053Z,1.50
2022-09-04T04:13:59.457Z,1.60
2022-09-04T04:17:03.658Z,1.73
2022-09-04T04:19:42.673Z,1.58
2022-09-04T04:22:20.761Z,1.63
2022-09-04T04:25:05.996Z,1.42
2022-09-04T04:27:54.053Z,1.60
2022-09-04T04:30:21.121Z,1.50
2022-09-04T04:33:12.503Z,1.65
2022-09-04T04:35:54.813Z,1.70
2022-09-04T04:38:44.759Z,1.55
2022-09-04T04:41:55.454Z,1.40
2022-09-04T04:45:10.535Z,1.33
2022-09-04T04:47:55.395Z,1.30
2022-09-04T04:50:46.221Z,1.45
2022-09-04T04:53:17.257Z,1.20
2022-09-04T04:55:58.118Z,1.30
2022-09-04T04:58:58.350Z,1.60
2022-09-04T05:01:50.738Z,1.30
2022-09-04T05:04:30.061Z,1.48
2022-09-04T05:07:37.556Z,1.50
2022-09-04T05:10:19.187Z,1.40
2022-09-04T05:13:02.193Z,1.50
2022-09-04T05:16:07.860Z,1.50
2022-09-04T05:18:49.820Z,1.25
2022-09-04T05:21:34.536Z,1.40
2022-09-04T05:24:13.975Z,1.60
2022-09-04T05:27:24.000Z,0.98
2022-09-04T05:30:12.664Z,1.35
2022-09-04T05:32:56.362Z,1.48
2022-09-04T05:35:41.800Z,1.80
2022-09-04T05:38:16.644Z,1.45
2022-09-04T05:41:15.165Z,1.50
2022-09-04T05:44:03.625Z,1.35
2022-09-04T05:46:39.141Z,1.30
2022-09-04T05:49:35.759Z,1.50
2022-09-04T05:52:22.508Z,1.55
2022-09-04T05:55:08.205Z,1.60
2022-09-04T05:57:39.854Z,1.40
2022-09-04T06:00:10.086Z,1.63
2022-09-04T06:03:11.795Z,1.60
2022-09-04T06:05:58.483Z,1.65
2022-09-04T06:08:49.929Z,1.40
2022-09-04T06:11:36.911Z,1.45
2022-09-04T06:14:37.421Z,1.70
2022-09-04T06:17:15.678Z,1.60
2022-09-04T06:19:53.497Z,1.40
2022-09-04T06:22:38.358Z,1.30
2022-09-04T06:25:14.351Z,1.17
2022-09-04T06:27:59.948Z,1.65
2022-09-04T06:30:50.476Z,1.13
2022-09-04T06:33:40.073Z,1.33
2022-09-04T06:36:12.681Z,1.33
2022-09-04T06:39:00.515Z,1.77
2022-09-04T06:41:54.753Z,1.27
2022-09-04T06:44:39.987Z,1.48
2022-09-04T06:47:31.349Z,1.30
2022-09-04T06:50:16.675Z,1.50
2022-09-04T06:53:04.296Z,1.70
2022-09-04T06:55:54.679Z,1.40
2022-09-04T06:58:41.252Z,1.45
2022-09-04T07:01:12.247Z,1.70
2022-09-04T07:03:50.824Z,1.60
2022-09-04T07:06:30.157Z,1.50
2022-09-04T07:09:22.343Z,1.35
2022-09-04T07:12:10.607Z,1.60
2022-09-04T07:15:24.992Z,1.65
2022-09-04T07:18:25.522Z,1.27
2022-09-04T07:21:15.917Z,1.50
2022-09-04T07:23:45.383Z,1.30
2022-09-04T07:26:28.402Z,1.63
2022-09-04T07:29:29.684Z,1.48
2022-09-04T07:32:20.227Z,1.58
2022-09-04T07:34:55.897Z,1.50
2022-09-04T07:38:03.555Z,1.50
2022-09-04T07:40:39.541Z,1.52
2022-09-04T07:43:21.438Z,1.33
2022-09-04T07:45:58.711Z,1.63
2022-09-04T07:48:44.629Z,1.50
2022-09-04T07:51:22.168Z,1.90
2022-09-04T07:54:11.589Z,1.35
2022-09-04T07:57:07.865Z,1.58
2022-09-04T07:59:59.256Z,1.60
2022-09-04T08:02:56.569Z,1.40
2022-09-04T08:05:30.607Z,1.52
2022-09-04T08:08:21.674Z,1.38
2022-09-04T08:10:48.218Z,1.35
2022-09-04T08:13:22.900Z,1.38
2022-09-04T08:15:56.069Z,1.50
2022-09-04T08:18:35.542Z,1.45
2022-09-04T08:21:21.603Z,1.30
2022-09-04T08:24:16.422Z,1.20
2022-09-04T08:27:05.082Z,1.50
2022-09-04T08:29:59.621Z,1.45
2022-09-04T08:32:38.627Z,1.65
2022-09-04T08:35:35.664Z,1.40
2022-09-04T08:38:24.046Z,1.50
2022-09-04T08:41:17.976Z,1.38
2022-09-04T08:43:50.321Z,1.70
2022-09-04T08:46:36.416Z,1.75
2022-09-04T08:49:37.672Z,1.42
2022-09-04T08:52:21.171Z,1.50
2022-09-04T08:55:29.532Z,1.40
2022-09-04T08:58:10.603Z,1.40
2022-09-04T09:01:08.150Z,1.55
2022-09-04T09:04:05.727Z,1.30
2022-09-04T09:06:35.044Z,1.20
2022-09-04T09:09:19.953Z,1.48
2022-09-04T09:11:58.687Z,1.48
2022-09-04T09:15:02.748Z,1.60
2022-09-04T09:17:53.966Z,1.80
2022-09-04T09:20:54.811Z,1.48
2022-09-04T09:23:41.609Z,1.52
2022-09-04T09:26:28.339Z,1.30
2022-09-04T09:29:13.435Z,1.42
2022-09-04T09:31:52.122Z,1.77
2022-09-04T09:34:27.450Z,2.60
2022-09-04T09:37:21.675Z,1.50
2022-09-04T09:40:06.640Z,1.50
2022-09-04T09:42:57.417Z,1.30
2022-09-04T09:46:02.382Z,1.40
2022-09-04T09:48:37.317Z,1.88
2022-09-04T09:51:18.908Z,1.55
2022-09-04T09:54:22.463Z,1.13
2022-09-04T09:57:13.543Z,1.40
2022-09-04T09:59:52.164Z,1.38
2022-09-04T10:02:55.727Z,1.65
2022-09-04T10:05:39.776Z,1.55
2022-09-04T10:08:44.702Z,1.20
2022-09-04T10:11:48.809Z,1.15
2022-09-04T10:14:49.382Z,1.25
2022-09-04T10:17:54.838Z,1.30
2022-09-04T10:21:12.194Z,1.30
2022-09-04T10:23:48.255Z,1.00
2022-09-04T10:26:44.697Z,1.35
2022-09-04T10:29:32.595Z,1.17
2022-09-04T10:32:07.637Z,1.27
2022-09-04T10:34:50.509Z,1.45
2022-09-04T10:40:43.138Z,1.08
2022-09-04T10:43:17.189Z,1.40
2022-09-04T10:48:35.033Z,1.30
2022-09-04T10:51:27.325Z,1.30
2022-09-04T10:54:07.901Z,1.13
2022-09-04T10:56:56.377Z,1.52
2022-09-04T10:59:57.015Z,1.20
2022-09-04T11:02:47.055Z,1.23
2022-09-04T11:05:24.900Z,1.20
2022-09-04T11:08:13.024Z,1.52
2022-09-04T11:11:07.637Z,1.20
2022-09-04T11:13:37.348Z,1.15
2022-09-04T11:16:21.958Z,1.00
2022-09-04T11:19:21.147Z,1.05
2022-09-04T11:21:56.535Z,1.00
2022-09-04T11:25:19.990Z,1.17
2022-09-04T11:27:59.214Z,1.10
2022-09-04T11:30:29.800Z,0.90
2022-09-04T11:33:10.672Z,1.20
2022-09-04T11:35:45.929Z,1.10
2022-09-04T11:38:17.439Z,1.10
2022-09-04T11:41:04.535Z,1.00
2022-09-04T11:43:40.179Z,0.98
2022-09-04T11:46:21.183Z,0.65
2022-09-04T11:48:47.711Z,1.00
2022-09-04T11:51:40.970Z,1.02
2022-09-04T11:54:26.007Z,0.90
2022-09-04T11:57:19.821Z,0.88
2022-09-04T12:00:07.777Z,1.13
2022-09-04T12:02:52.828Z,0.93
2022-09-04T12:05:39.355Z,0.70
2022-09-04T12:08:21.277Z,0.70
2022-09-04T12:11:22.380Z,0.75
2022-09-04T12:14:15.244Z,0.70
2022-09-04T12:17:10.593Z,0.80
2022-09-04T12:20:26.561Z,0.90
2022-09-04T12:23:18.497Z,0.93
2022-09-04T12:25:45.010Z,0.90
2022-09-04T12:28:46.641Z,0.90
2022-09-04T12:31:35.107Z,0.80
2022-09-04T12:34:40.230Z,0.77
2022-09-04T12:37:37.285Z,0.95
2022-09-04T12:40:41.783Z,0.77
2022-09-04T12:43:29.461Z,0.70
2022-09-04T12:46:12.836Z,0.70
2022-09-04T12:48:58.275Z,0.90
2022-09-04T12:51:35.968Z,0.80
2022-09-04T12:54:34.512Z,0.90
2022-09-04T12:57:26.894Z,0.88
2022-09-04T13:00:15.460Z,1.10
2022-09-04T13:02:51.160Z,4.43
2022-09-04T13:05:51.135Z,1.10
2022-09-04T13:08:54.229Z,4.38
2022-09-04T13:11:59.778Z,2.03
2022-09-04T13:14:26.330Z,1.35
2022-09-04T13:17:06.007Z,0.80
2022-09-04T13:20:00.598Z,0.80
2022-09-04T13:22:41.087Z,0.70
2022-09-04T13:25:16.003Z,0.80
2022-09-04T13:27:48.195Z,0.85
2022-09-04T13:30:24.535Z,0.80
2022-09-04T13:33:14.331Z,0.77
2022-09-04T13:35:59.210Z,0.80
2022-09-04T13:38:31.838Z,0.80
2022-09-04T13:41:20.098Z,0.80
2022-09-04T13:44:23.401Z,0.70
2022-09-04T13:47:00.085Z,0.70
2022-09-04T13:49:32.887Z,2.88
2022-09-04T13:52:08.395Z,1.00
2022-09-04T13:54:42.022Z,0.90
2022-09-04T13:57:21.809Z,0.70
2022-09-04T13:59:50.571Z,0.80
2022-09-04T14:02:24.657Z,0.80
2022-09-04T14:05:14.044Z,0.70
2022-09-04T14:07:45.343Z,0.70
2022-09-04T14:10:55.735Z,0.70
2022-09-04T14:13:41.786Z,0.80
2022-09-04T14:16:15.302Z,0.80
2022-09-04T14:19:10.860Z,0.70
2022-09-04T14:21:49.159Z,0.75
2022-09-04T14:24:38.601Z,0.77
2022-09-04T14:27:39.636Z,0.85
2022-09-04T14:30:18.161Z,0.80
2022-09-04T14:33:21.784Z,0.75
2022-09-04T14:36:10.267Z,0.90
2022-09-04T14:39:01.376Z,0.80
2022-09-04T14:42:06.189Z,0.80
2022-09-04T14:44:58.002Z,1.02
2022-09-04T14:47:42.344Z,1.13
2022-09-04T14:50:15.130Z,0.88
2022-09-04T14:52:48.572Z,0.95
2022-09-04T14:55:30.633Z,0.85
2022-09-04T14:58:10.676Z,0.80
2022-09-04T15:01:07.028Z,0.90
2022-09-04T15:04:06.048Z,1.27
2022-09-04T15:07:01.103Z,1.20
2022-09-04T15:09:39.014Z,0.95
2022-09-04T15:12:25.992Z,0.88
2022-09-04T15:15:11.372Z,0.88
2022-09-04T15:17:46.893Z,0.90
2022-09-04T15:20:22.715Z,0.70
2022-09-04T15:23:14.479Z,1.00
2022-09-04T15:25:59.137Z,0.80
2022-09-04T15:28:39.192Z,0.77
2022-09-04T15:31:42.628Z,0.95
2022-09-04T15:34:19.094Z,0.98
2022-09-04T15:36:46.136Z,0.90
2022-09-04T15:39:27.866Z,0.70
2022-09-04T15:41:54.538Z,1.00
2022-09-04T15:44:39.961Z,1.00
2022-09-04T15:47:18.195Z,0.98
2022-09-04T15:50:00.671Z,1.08
2022-09-04T15:52:43.371Z,0.88
2022-09-04T15:55:35.896Z,0.95
2022-09-04T15:58:29.336Z,1.10
2022-09-04T16:01:17.504Z,0.90
2022-09-04T16:04:07.337Z,0.88
2022-09-04T16:06:54.533Z,0.93
2022-09-04T16:09:30.656Z,1.00
2022-09-04T16:12:18.806Z,1.13
2022-09-04T16:14:55.483Z,1.10
2022-09-04T16:17:26.704Z,1.13
2022-09-04T16:20:09.878Z,1.13
2022-09-04T16:22:49.002Z,1.00
2022-09-04T16:25:19.300Z,1.10
2022-09-04T16:28:08.302Z,1.00
2022-09-04T16:30:48.252Z,0.90
2022-09-04T16:33:30.792Z,1.10
2022-09-04T16:36:17.484Z,1.00
2022-09-04T16:38:57.344Z,0.73
2022-09-04T16:41:31.658Z,1.10
2022-09-04T16:44:16.331Z,1.02
2022-09-04T16:47:03.099Z,1.02
2022-09-04T16:49:41.878Z,0.98
2022-09-04T16:52:20.001Z,0.93
2022-09-04T16:54:54.995Z,1.17
2022-09-04T16:57:50.536Z,1.10
2022-09-04T17:00:17.762Z,1.20
2022-09-04T17:02:53.506Z,1.20
2022-09-04T17:05:28.578Z,1.02
2022-09-04T17:08:10.758Z,1.20
2022-09-04T17:10:53.110Z,1.07
2022-09-04T17:13:38.042Z,0.90
2022-09-04T17:16:24.165Z,1.00
2022-09-04T17:18:54.668Z,1.10
2022-09-04T17:24:52.953Z,1.30
2022-09-04T17:29:05.205Z,1.10
2022-09-04T17:29:07.712Z,1.10
2022-09-04T17:31:17.413Z,1.05
2022-09-04T17:39:52.932Z,1.00
2022-09-04T17:40:36.302Z,1.10
2022-09-04T17:40:49.262Z,1.30
2022-09-04T17:43:36.692Z,1.00
2022-09-04T17:46:12.804Z,1.20
2022-09-04T17:48:42.963Z,1.30
2022-09-04T17:51:17.775Z,1.27
2022-09-04T17:53:51.677Z,1.10
2022-09-04T17:56:26.614Z,1.10
2022-09-04T17:59:06.361Z,1.10
2022-09-04T18:01:51.359Z,1.20
2022-09-04T18:04:40.202Z,1.13
2022-09-04T18:08:09.697Z,1.55
2022-09-04T18:10:37.942Z,1.10
2022-09-04T18:13:37.052Z,1.00
2022-09-04T18:16:50.364Z,1.00
2022-09-04T18:19:49.039Z,0.95
2022-09-04T18:22:32.083Z,1.10
2022-09-04T18:25:17.060Z,1.10
2022-09-04T18:28:21.331Z,1.27
2022-09-04T18:37:09.936Z,1.02
2022-09-04T18:37:21.673Z,0.98
2022-09-04T18:37:22.454Z,1.10
2022-09-04T18:40:04.223Z,1.30
2022-09-04T18:48:15.977Z,1.38
2022-09-04T18:50:30.452Z,1.30
2022-09-04T18:50:48.818Z,1.00
2022-09-04T18:51:21.308Z,1.10
2022-09-04T18:53:59.830Z,1.35
2022-09-04T18:56:42.943Z,1.00
2022-09-04T19:01:52.309Z,1.10
2022-09-04T19:04:33.469Z,1.13
2022-09-04T19:07:07.718Z,1.20
2022-09-04T19:09:55.812Z,1.10
2022-09-04T19:12:35.759Z,1.10
2022-09-04T19:15:36.086Z,1.13
2022-09-04T19:18:46.587Z,1.40
2022-09-04T19:21:16.256Z,1.00
2022-09-04T19:24:01.065Z,1.20
2022-09-04T19:26:38.923Z,1.20
2022-09-04T19:29:24.356Z,1.15
2022-09-04T19:31:57.757Z,1.20
2022-09-04T19:34:44.248Z,1.20
2022-09-04T19:38:34.032Z,1.10
2022-09-04T19:46:26.041Z,1.33
2022-09-04T19:46:29.014Z,1.42
2022-09-04T19:49:58.387Z,1.00
2022-09-04T19:53:31.771Z,1.40
2022-09-04T19:55:23.460Z,1.40
2022-09-04T19:58:37.322Z,1.27
2022-09-04T20:01:13.205Z,1.20
2022-09-04T20:04:01.388Z,1.63
2022-09-04T20:06:34.082Z,1.30
2022-09-04T20:09:16.349Z,1.60
2022-09-04T20:11:50.865Z,1.70
2022-09-04T20:14:34.748Z,1.48
2022-09-04T20:17:01.330Z,1.58
2022-09-04T20:19:52.415Z,1.75
2022-09-04T20:22:45.473Z,1.50
2022-09-04T20:25:21.303Z,1.70
2022-09-04T20:27:55.658Z,1.67
2022-09-04T20:30:25.075Z,1.80
2022-09-04T20:32:56.555Z,1.65
2022-09-04T20:35:36.859Z,1.63
2022-09-04T20:38:23.290Z,1.65
2022-09-04T20:40:57.455Z,1.73
2022-09-04T20:43:32.148Z,1.75
2022-09-04T20:52:12.252Z,1.92
2022-09-04T20:52:48.681Z,1.42
2022-09-04T20:52:54.891Z,1.50
2022-09-04T20:55:54.807Z,1.60
2022-09-04T21:03:09.195Z,1.70
2022-09-04T21:03:09.517Z,1.88
2022-09-04T21:04:47.502Z,1.60
2022-09-04T21:07:28.739Z,1.80
2022-09-04T21:10:26.042Z,1.88
2022-09-04T21:13:31.843Z,1.90
2022-09-04T21:16:13.638Z,2.53
2022-09-04T21:18:43.510Z,1.80
2022-09-04T21:21:21.589Z,1.77
2022-09-04T21:24:10.252Z,1.85
2022-09-04T21:27:05.588Z,1.80
2022-09-04T21:29:32.149Z,1.85
2022-09-04T21:32:13.940Z,2.13
2022-09-04T21:34:54.460Z,1.73
2022-09-04T21:37:50.189Z,1.88
2022-09-04T21:40:50.354Z,1.77
2022-09-04T21:43:36.818Z,2.00
2022-09-04T21:46:21.668Z,2.13
2022-09-04T21:49:00.140Z,2.05
2022-09-04T21:51:47.672Z,2.08
2022-09-04T21:54:37.795Z,1.90
2022-09-04T22:02:42.627Z,1.80
2022-09-04T22:02:44.442Z,2.10
2022-09-04T22:03:35.174Z,1.77
2022-09-04T22:09:00.165Z,1.90
2022-09-04T22:13:28.827Z,1.67
2022-09-04T22:13:43.379Z,1.98
2022-09-04T22:15:59.615Z,2.00
2022-09-04T22:18:29.262Z,2.30
2022-09-04T22:21:32.701Z,1.98
2022-09-04T22:24:17.528Z,1.85
2022-09-04T22:27:02.704Z,2.17
2022-09-04T22:29:40.248Z,2.03
2022-09-04T22:32:31.849Z,1.80
2022-09-04T22:35:36.371Z,1.80
2022-09-04T22:38:21.961Z,2.33
2022-09-04T22:41:06.623Z,2.00
2022-09-04T22:43:46.570Z,2.03
2022-09-04T22:46:24.928Z,1.80
2022-09-04T22:49:16.573Z,2.20
2022-09-04T22:52:01.671Z,2.20
2022-09-04T22:54:55.130Z,2.30
2022-09-04T22:57:35.816Z,2.08
2022-09-04T23:00:20.645Z,2.28
2022-09-04T23:03:11.655Z,2.22
2022-09-04T23:08:10.494Z,2.60
2022-09-04T23:13:43.882Z,1.88
2022-09-04T23:13:49.608Z,1.88
2022-09-04T23:15:59.265Z,2.22
2022-09-04T23:23:10.815Z,2.10
2022-09-04T23:26:34.454Z,1.83
2022-09-04T23:26:36.797Z,2.00
2022-09-04T23:28:02.731Z,2.55
2022-09-04T23:31:11.261Z,2.25
2022-09-04T23:34:06.180Z,2.17
2022-09-04T23:36:52.011Z,2.25
2022-09-04T23:39:46.628Z,1.92
2022-09-04T23:42:21.337Z,2.13
2022-09-04T23:45:19.621Z,2.10
2022-09-04T23:48:04.604Z,2.30
2022-09-04T23:50:57.619Z,2.10
2022-09-04T23:53:37.088Z,2.63
2022-09-04T23:56:04.506Z,2.40
2022-09-04T23:59:27.205Z,2.35
